Oneiro — SVA3427 — position and weather

sailwx.info

Track history (hours):
 
Tides and Currents Weather Stations Pressure Air Temp Water Temp Dewpoint Dewpoint Depression Visibility Wind Speed Wind Dir Waves Ship Positions

Oneiro

Last reported at 2016-Aug-25 01:33 UTC. Time now 2016-Aug-25 02:42 UTC.
Position N 37°53' E 023°43'.

Length 53 m; draft 3 m.

Type: Pleasure craft. MMSI: 241024000.

Date/timePositionNaut miles runAvg speedWind from/ knotsBaromVisibWave heightAir tempDewpointWater temp
2016-Aug-25 01:33N 37°53' E 023°43'0 0.0
2016-Aug-25 00:34N 37°53' E 023°43'0 0.0
2016-Aug-24 23:33N 37°53' E 023°43'0 0.0
2016-Aug-24 22:34N 37°53' E 023°43'0 0.0
2016-Aug-24 21:34N 37°53' E 023°43'0 0.0
2016-Aug-24 20:33N 37°53' E 023°43'0 0.0
2016-Aug-24 19:34N 37°53' E 023°43'0 0.0
2016-Aug-24 18:34N 37°53' E 023°43'0 0.0
2016-Aug-24 17:34N 37°53' E 023°43'0 0.0
2016-Aug-24 16:33N 37°53' E 023°43'0 0.0
2016-Aug-24 15:34N 37°53' E 023°43'0 0.0
2016-Aug-24 14:34N 37°53' E 023°43'0 0.0
2016-Aug-24 13:33N 37°53' E 023°43'0 0.0
2016-Aug-24 12:33N 37°53' E 023°43'0 0.0
2016-Aug-24 11:33N 37°53' E 023°43'0 0.0
2016-Aug-24 10:34N 37°53' E 023°43'0 0.0
2016-Aug-24 09:34N 37°53' E 023°43'0 0.0
2016-Aug-24 08:33N 37°53' E 023°43'0 0.0
2016-Aug-24 07:34N 37°53' E 023°43'1 0.8
2016-Aug-24 06:33N 37°52' E 023°43'2711.7
2016-Aug-24 04:16N 37°26' E 023°33'  
2016-Aug-18 06:22N 37°09' E 024°24'35 2.2
2016-Aug-17 14:06N 37°37' E 023°59'712.5
2016-Aug-17 13:33N 37°42' E 023°52'1212.3
2016-Aug-17 12:33N 37°52' E 023°43'1 0.9
2016-Aug-17 11:33N 37°53' E 023°43'0 0.0
2016-Aug-17 10:33N 37°53' E 023°43'0 0.0
2016-Aug-17 09:33N 37°53' E 023°43'0 0.0
2016-Aug-17 08:33N 37°53' E 023°43'0 0.0
2016-Aug-17 07:33N 37°53' E 023°43'0 0.0
2016-Aug-17 06:33N 37°53' E 023°43'0 0.0
2016-Aug-17 05:33N 37°53' E 023°43'0 0.0
2016-Aug-17 04:33N 37°53' E 023°43'0 0.0
2016-Aug-17 03:33N 37°53' E 023°43'0 0.0
2016-Aug-17 02:33N 37°53' E 023°43'0 0.0
2016-Aug-17 01:33N 37°53' E 023°43'0 0.0
2016-Aug-17 00:33N 37°53' E 023°43'0 0.0
2016-Aug-16 23:33N 37°53' E 023°43'0 0.0
2016-Aug-16 22:33N 37°53' E 023°43'0 0.0
2016-Aug-16 21:33N 37°53' E 023°43'0 0.0
2016-Aug-16 20:33N 37°53' E 023°43'0 0.0
2016-Aug-16 19:33N 37°53' E 023°43'0 0.0
2016-Aug-16 18:33N 37°53' E 023°43'0 0.0
2016-Aug-16 17:33N 37°53' E 023°43'0 0.0
2016-Aug-16 16:33N 37°53' E 023°43'0 0.0
2016-Aug-16 15:33N 37°53' E 023°43'0 0.0
2016-Aug-16 14:33N 37°53' E 023°43'0 0.0
2016-Aug-16 13:33N 37°53' E 023°43'0 0.0
2016-Aug-16 12:33N 37°53' E 023°43'0 0.0
2016-Aug-16 11:33N 37°53' E 023°43'0 0.0
2016-Aug-16 10:33N 37°53' E 023°43'0 0.0
2016-Aug-16 09:33N 37°53' E 023°43'0 0.0
2016-Aug-16 08:33N 37°53' E 023°43'0 0.0
2016-Aug-16 07:33N 37°53' E 023°43'0 0.0
2016-Aug-16 04:33N 37°53' E 023°43'0 0.0
2016-Aug-16 03:33N 37°53' E 023°43'0 0.0
2016-Aug-16 02:33N 37°53' E 023°43'0 0.0
2016-Aug-16 01:33N 37°53' E 023°43'0 0.0
2016-Aug-16 00:33N 37°53' E 023°43'0 0.0
2016-Aug-15 23:33N 37°53' E 023°43'0 0.0
2016-Aug-15 22:33N 37°53' E 023°43'0 0.0
2016-Aug-15 21:33N 37°53' E 023°43'0 0.0
2016-Aug-15 20:33N 37°53' E 023°43'0 0.0
2016-Aug-15 19:33N 37°53' E 023°43'0 0.0
2016-Aug-15 18:33N 37°53' E 023°43'0 0.0
2016-Aug-15 17:33N 37°53' E 023°43'0 0.0
2016-Aug-15 16:33N 37°53' E 023°43'0 0.0
2016-Aug-15 15:33N 37°53' E 023°43'0 0.0
2016-Aug-15 14:34N 37°53' E 023°43'3 2.8
2016-Aug-15 13:33N 37°51' E 023°41'1212.1
2016-Aug-15 12:32N 37°39' E 023°35'1010.4
2016-Aug-15 11:33N 37°30' E 023°29'0 0.0
2016-Aug-15 09:10N 37°30' E 023°29'1 1.0
2016-Aug-15 08:33N 37°30' E 023°28'0 0.0
2016-Aug-15 07:33N 37°30' E 023°28'0 0.0
2016-Aug-15 06:33N 37°30' E 023°28'0 0.0
2016-Aug-15 04:33N 37°30' E 023°28'0 0.0
2016-Aug-15 03:33N 37°30' E 023°28'0 0.0
2016-Aug-15 02:33N 37°30' E 023°28'  
Track history (hours):
 
Tides and Currents Weather Stations Pressure Air Temp Water Temp Dewpoint Dewpoint Depression Visibility Wind Speed Wind Dir Waves Ship Positions

Oneiro

Last reported at 2016-Aug-25 01:33 UTC. Time now 2016-Aug-25 02:42 UTC.
Position N 37°53' E 023°43'.

Length 53 m; draft 3 m.

Type: Pleasure craft. MMSI: 241024000.

Date/timePositionNaut miles runAvg speedWind from/ knotsBaromVisibWave heightAir tempDewpointWater temp
2016-Aug-25 01:33N 37°53' E 023°43'0 0.0
2016-Aug-25 00:34N 37°53' E 023°43'0 0.0
2016-Aug-24 23:33N 37°53' E 023°43'0 0.0
2016-Aug-24 22:34N 37°53' E 023°43'0 0.0
2016-Aug-24 21:34N 37°53' E 023°43'0 0.0
2016-Aug-24 20:33N 37°53' E 023°43'0 0.0
2016-Aug-24 19:34N 37°53' E 023°43'0 0.0
2016-Aug-24 18:34N 37°53' E 023°43'0 0.0
2016-Aug-24 17:34N 37°53' E 023°43'0 0.0
2016-Aug-24 16:33N 37°53' E 023°43'0 0.0
2016-Aug-24 15:34N 37°53' E 023°43'0 0.0
2016-Aug-24 14:34N 37°53' E 023°43'0 0.0
2016-Aug-24 13:33N 37°53' E 023°43'0 0.0
2016-Aug-24 12:33N 37°53' E 023°43'0 0.0
2016-Aug-24 11:33N 37°53' E 023°43'0 0.0
2016-Aug-24 10:34N 37°53' E 023°43'0 0.0
2016-Aug-24 09:34N 37°53' E 023°43'0 0.0
2016-Aug-24 08:33N 37°53' E 023°43'0 0.0
2016-Aug-24 07:34N 37°53' E 023°43'1 0.8
2016-Aug-24 06:33N 37°52' E 023°43'2711.7
2016-Aug-24 04:16N 37°26' E 023°33'  
2016-Aug-18 06:22N 37°09' E 024°24'35 2.2
2016-Aug-17 14:06N 37°37' E 023°59'712.5
2016-Aug-17 13:33N 37°42' E 023°52'1212.3
2016-Aug-17 12:33N 37°52' E 023°43'1 0.9
2016-Aug-17 11:33N 37°53' E 023°43'0 0.0
2016-Aug-17 10:33N 37°53' E 023°43'0 0.0
2016-Aug-17 09:33N 37°53' E 023°43'0 0.0
2016-Aug-17 08:33N 37°53' E 023°43'0 0.0
2016-Aug-17 07:33N 37°53' E 023°43'0 0.0
2016-Aug-17 06:33N 37°53' E 023°43'0 0.0
2016-Aug-17 05:33N 37°53' E 023°43'0 0.0
2016-Aug-17 04:33N 37°53' E 023°43'0 0.0
2016-Aug-17 03:33N 37°53' E 023°43'0 0.0
2016-Aug-17 02:33N 37°53' E 023°43'0 0.0
2016-Aug-17 01:33N 37°53' E 023°43'0 0.0
2016-Aug-17 00:33N 37°53' E 023°43'0 0.0
2016-Aug-16 23:33N 37°53' E 023°43'0 0.0
2016-Aug-16 22:33N 37°53' E 023°43'0 0.0
2016-Aug-16 21:33N 37°53' E 023°43'0 0.0
2016-Aug-16 20:33N 37°53' E 023°43'0 0.0
2016-Aug-16 19:33N 37°53' E 023°43'0 0.0
2016-Aug-16 18:33N 37°53' E 023°43'0 0.0
2016-Aug-16 17:33N 37°53' E 023°43'0 0.0
2016-Aug-16 16:33N 37°53' E 023°43'0 0.0
2016-Aug-16 15:33N 37°53' E 023°43'0 0.0
2016-Aug-16 14:33N 37°53' E 023°43'0 0.0
2016-Aug-16 13:33N 37°53' E 023°43'0 0.0
2016-Aug-16 12:33N 37°53' E 023°43'0 0.0
2016-Aug-16 11:33N 37°53' E 023°43'0 0.0
2016-Aug-16 10:33N 37°53' E 023°43'0 0.0
2016-Aug-16 09:33N 37°53' E 023°43'0 0.0
2016-Aug-16 08:33N 37°53' E 023°43'0 0.0
2016-Aug-16 07:33N 37°53' E 023°43'0 0.0
2016-Aug-16 04:33N 37°53' E 023°43'0 0.0
2016-Aug-16 03:33N 37°53' E 023°43'0 0.0
2016-Aug-16 02:33N 37°53' E 023°43'0 0.0
2016-Aug-16 01:33N 37°53' E 023°43'0 0.0
2016-Aug-16 00:33N 37°53' E 023°43'0 0.0
2016-Aug-15 23:33N 37°53' E 023°43'0 0.0
2016-Aug-15 22:33N 37°53' E 023°43'0 0.0
2016-Aug-15 21:33N 37°53' E 023°43'0 0.0
2016-Aug-15 20:33N 37°53' E 023°43'0 0.0
2016-Aug-15 19:33N 37°53' E 023°43'0 0.0
2016-Aug-15 18:33N 37°53' E 023°43'0 0.0
2016-Aug-15 17:33N 37°53' E 023°43'0 0.0
2016-Aug-15 16:33N 37°53' E 023°43'0 0.0
2016-Aug-15 15:33N 37°53' E 023°43'0 0.0
2016-Aug-15 14:34N 37°53' E 023°43'3 2.8
2016-Aug-15 13:33N 37°51' E 023°41'1212.1
2016-Aug-15 12:32N 37°39' E 023°35'1010.4
2016-Aug-15 11:33N 37°30' E 023°29'0 0.0
2016-Aug-15 09:10N 37°30' E 023°29'1 1.0
2016-Aug-15 08:33N 37°30' E 023°28'0 0.0
2016-Aug-15 07:33N 37°30' E 023°28'0 0.0
2016-Aug-15 06:33N 37°30' E 023°28'0 0.0
2016-Aug-15 04:33N 37°30' E 023°28'0 0.0
2016-Aug-15 03:33N 37°30' E 023°28'0 0.0
2016-Aug-15 02:33N 37°30' E 023°28'  

Dump ship's entire track history